sensor_id;sensor_type;location;lat;lon;timestamp;P1;durP1;ratioP1;P2;durP2;ratioP2
75584;SDS011;64162;53.508;10.476;2023-11-19T00:02:26;7.28;;;4.10;;
75584;SDS011;64162;53.508;10.476;2023-11-19T00:04:53;8.95;;;3.88;;
75584;SDS011;64162;53.508;10.476;2023-11-19T00:09:46;8.75;;;4.13;;
75584;SDS011;64162;53.508;10.476;2023-11-19T00:12:13;8.73;;;4.45;;
75584;SDS011;64162;53.508;10.476;2023-11-19T00:14:39;6.20;;;3.50;;
75584;SDS011;64162;53.508;10.476;2023-11-19T00:19:32;8.25;;;3.95;;
75584;SDS011;64162;53.508;10.476;2023-11-19T00:21:59;6.38;;;3.80;;
75584;SDS011;64162;53.508;10.476;2023-11-19T00:24:29;5.72;;;3.08;;
75584;SDS011;64162;53.508;10.476;2023-11-19T00:26:56;6.95;;;3.35;;
75584;SDS011;64162;53.508;10.476;2023-11-19T00:29:23;6.00;;;3.03;;
75584;SDS011;64162;53.508;10.476;2023-11-19T00:31:49;4.10;;;2.22;;
75584;SDS011;64162;53.508;10.476;2023-11-19T00:34:17;6.75;;;3.47;;
75584;SDS011;64162;53.508;10.476;2023-11-19T00:36:47;4.15;;;2.78;;
75584;SDS011;64162;53.508;10.476;2023-11-19T00:39:15;5.78;;;3.03;;
75584;SDS011;64162;53.508;10.476;2023-11-19T00:41:42;5.70;;;3.25;;
75584;SDS011;64162;53.508;10.476;2023-11-19T00:46:36;1.48;;;1.20;;
75584;SDS011;64162;53.508;10.476;2023-11-19T00:49:03;2.78;;;2.00;;
75584;SDS011;64162;53.508;10.476;2023-11-19T00:53:58;0.90;;;0.50;;
75584;SDS011;64162;53.508;10.476;2023-11-19T00:56:25;4.72;;;2.50;;
75584;SDS011;64162;53.508;10.476;2023-11-19T01:01:18;1.55;;;1.35;;
75584;SDS011;64162;53.508;10.476;2023-11-19T01:03:45;3.33;;;2.10;;
75584;SDS011;64162;53.508;10.476;2023-11-19T01:06:12;3.05;;;1.80;;
75584;SDS011;64162;53.508;10.476;2023-11-19T01:08:40;4.38;;;2.50;;
75584;SDS011;64162;53.508;10.476;2023-11-19T01:11:11;3.97;;;2.28;;
75584;SDS011;64162;53.508;10.476;2023-11-19T01:13:48;2.88;;;2.03;;
75584;SDS011;64162;53.508;10.476;2023-11-19T01:16:16;4.18;;;2.30;;
75584;SDS011;64162;53.508;10.476;2023-11-19T01:18:42;4.35;;;2.20;;
75584;SDS011;64162;53.508;10.476;2023-11-19T01:21:09;5.22;;;2.35;;
75584;SDS011;64162;53.508;10.476;2023-11-19T01:23:36;2.65;;;1.50;;
75584;SDS011;64162;53.508;10.476;2023-11-19T01:26:03;3.17;;;2.17;;
75584;SDS011;64162;53.508;10.476;2023-11-19T01:28:31;3.00;;;1.40;;
75584;SDS011;64162;53.508;10.476;2023-11-19T01:30:58;4.93;;;1.92;;
75584;SDS011;64162;53.508;10.476;2023-11-19T01:33:24;3.30;;;2.10;;
75584;SDS011;64162;53.508;10.476;2023-11-19T01:35:51;4.57;;;2.20;;
75584;SDS011;64162;53.508;10.476;2023-11-19T01:40:44;1.17;;;1.10;;
75584;SDS011;64162;53.508;10.476;2023-11-19T01:43:10;3.15;;;2.20;;
75584;SDS011;64162;53.508;10.476;2023-11-19T01:45:37;4.18;;;2.33;;
75584;SDS011;64162;53.508;10.476;2023-11-19T01:48:05;3.13;;;1.90;;
75584;SDS011;64162;53.508;10.476;2023-11-19T01:50:33;2.65;;;1.83;;
75584;SDS011;64162;53.508;10.476;2023-11-19T01:52:59;2.17;;;1.65;;
75584;SDS011;64162;53.508;10.476;2023-11-19T01:55:27;3.53;;;1.83;;
75584;SDS011;64162;53.508;10.476;2023-11-19T01:57:58;1.65;;;1.25;;
75584;SDS011;64162;53.508;10.476;2023-11-19T02:00:27;0.75;;;0.55;;
75584;SDS011;64162;53.508;10.476;2023-11-19T02:02:54;1.40;;;1.30;;
75584;SDS011;64162;53.508;10.476;2023-11-19T02:05:21;1.88;;;1.45;;
75584;SDS011;64162;53.508;10.476;2023-11-19T02:07:49;2.63;;;1.75;;
75584;SDS011;64162;53.508;10.476;2023-11-19T02:10:17;2.70;;;1.90;;
75584;SDS011;64162;53.508;10.476;2023-11-19T02:12:45;1.85;;;1.50;;
75584;SDS011;64162;53.508;10.476;2023-11-19T02:15:12;2.15;;;1.65;;
75584;SDS011;64162;53.508;10.476;2023-11-19T02:17:39;2.00;;;1.42;;
75584;SDS011;64162;53.508;10.476;2023-11-19T02:20:06;0.98;;;0.95;;
75584;SDS011;64162;53.508;10.476;2023-11-19T02:22:37;1.50;;;1.40;;
75584;SDS011;64162;53.508;10.476;2023-11-19T02:30:22;1.35;;;0.93;;
75584;SDS011;64162;53.508;10.476;2023-11-19T02:32:55;1.27;;;1.10;;
75584;SDS011;64162;53.508;10.476;2023-11-19T02:35:24;1.20;;;1.10;;
75584;SDS011;64162;53.508;10.476;2023-11-19T02:37:52;2.25;;;1.40;;
75584;SDS011;64162;53.508;10.476;2023-11-19T02:40:19;2.22;;;1.25;;
75584;SDS011;64162;53.508;10.476;2023-11-19T02:42:45;1.90;;;1.40;;
75584;SDS011;64162;53.508;10.476;2023-11-19T02:45:12;1.40;;;1.30;;
75584;SDS011;64162;53.508;10.476;2023-11-19T02:47:41;2.15;;;1.40;;
75584;SDS011;64162;53.508;10.476;2023-11-19T02:50:09;1.45;;;1.25;;
75584;SDS011;64162;53.508;10.476;2023-11-19T02:52:41;1.98;;;1.60;;
75584;SDS011;64162;53.508;10.476;2023-11-19T02:55:08;2.20;;;1.30;;
75584;SDS011;64162;53.508;10.476;2023-11-19T02:57:38;1.63;;;1.42;;
75584;SDS011;64162;53.508;10.476;2023-11-19T03:00:15;1.60;;;1.33;;
75584;SDS011;64162;53.508;10.476;2023-11-19T03:02:44;1.92;;;1.50;;
75584;SDS011;64162;53.508;10.476;2023-11-19T03:05:20;1.40;;;1.30;;
75584;SDS011;64162;53.508;10.476;2023-11-19T03:07:48;1.77;;;1.27;;
75584;SDS011;64162;53.508;10.476;2023-11-19T03:12:41;1.02;;;0.93;;
75584;SDS011;64162;53.508;10.476;2023-11-19T03:15:09;1.70;;;1.23;;
75584;SDS011;64162;53.508;10.476;2023-11-19T03:17:38;1.65;;;1.20;;
75584;SDS011;64162;53.508;10.476;2023-11-19T03:20:06;1.30;;;1.25;;
75584;SDS011;64162;53.508;10.476;2023-11-19T03:22:38;1.48;;;1.20;;
75584;SDS011;64162;53.508;10.476;2023-11-19T03:25:05;1.00;;;0.90;;
75584;SDS011;64162;53.508;10.476;2023-11-19T03:27:35;1.35;;;1.17;;
75584;SDS011;64162;53.508;10.476;2023-11-19T03:30:08;1.30;;;1.10;;
75584;SDS011;64162;53.508;10.476;2023-11-19T03:32:35;1.70;;;1.45;;
75584;SDS011;64162;53.508;10.476;2023-11-19T03:35:02;1.38;;;1.17;;
75584;SDS011;64162;53.508;10.476;2023-11-19T03:37:30;1.98;;;1.30;;
75584;SDS011;64162;53.508;10.476;2023-11-19T03:39:58;2.50;;;1.60;;
75584;SDS011;64162;53.508;10.476;2023-11-19T03:42:27;1.67;;;1.38;;
75584;SDS011;64162;53.508;10.476;2023-11-19T03:47:20;1.50;;;1.35;;
75584;SDS011;64162;53.508;10.476;2023-11-19T03:49:51;1.52;;;1.23;;
75584;SDS011;64162;53.508;10.476;2023-11-19T03:52:18;1.70;;;1.50;;
75584;SDS011;64162;53.508;10.476;2023-11-19T03:54:45;2.35;;;1.70;;
75584;SDS011;64162;53.508;10.476;2023-11-19T03:57:12;1.27;;;1.10;;
75584;SDS011;64162;53.508;10.476;2023-11-19T03:59:39;1.55;;;1.23;;
75584;SDS011;64162;53.508;10.476;2023-11-19T04:02:06;2.15;;;1.50;;
75584;SDS011;64162;53.508;10.476;2023-11-19T04:07:00;2.88;;;1.40;;
75584;SDS011;64162;53.508;10.476;2023-11-19T04:09:29;5.93;;;1.55;;
75584;SDS011;64162;53.508;10.476;2023-11-19T04:11:56;1.92;;;1.40;;
75584;SDS011;64162;53.508;10.476;2023-11-19T04:14:23;2.47;;;1.70;;
75584;SDS011;64162;53.508;10.476;2023-11-19T04:19:17;1.65;;;1.40;;
75584;SDS011;64162;53.508;10.476;2023-11-19T04:21:44;4.13;;;1.80;;
75584;SDS011;64162;53.508;10.476;2023-11-19T04:24:12;2.35;;;1.73;;
75584;SDS011;64162;53.508;10.476;2023-11-19T04:26:43;3.42;;;1.92;;
75584;SDS011;64162;53.508;10.476;2023-11-19T04:29:11;3.20;;;1.80;;
75584;SDS011;64162;53.508;10.476;2023-11-19T04:31:39;2.65;;;1.65;;
75584;SDS011;64162;53.508;10.476;2023-11-19T04:34:06;3.38;;;1.50;;
75584;SDS011;64162;53.508;10.476;2023-11-19T04:36:33;3.60;;;2.00;;
75584;SDS011;64162;53.508;10.476;2023-11-19T04:39:00;3.20;;;1.92;;
75584;SDS011;64162;53.508;10.476;2023-11-19T04:41:27;3.30;;;2.40;;
75584;SDS011;64162;53.508;10.476;2023-11-19T04:43:54;3.67;;;2.20;;
75584;SDS011;64162;53.508;10.476;2023-11-19T04:46:21;3.58;;;2.10;;
75584;SDS011;64162;53.508;10.476;2023-11-19T04:48:49;3.92;;;2.10;;
75584;SDS011;64162;53.508;10.476;2023-11-19T04:51:16;5.53;;;2.10;;
75584;SDS011;64162;53.508;10.476;2023-11-19T04:56:12;3.38;;;2.00;;
75584;SDS011;64162;53.508;10.476;2023-11-19T04:58:39;2.05;;;1.42;;
75584;SDS011;64162;53.508;10.476;2023-11-19T05:03:32;3.53;;;1.80;;
75584;SDS011;64162;53.508;10.476;2023-11-19T05:05:59;2.97;;;1.95;;
75584;SDS011;64162;53.508;10.476;2023-11-19T05:10:52;3.72;;;2.10;;
75584;SDS011;64162;53.508;10.476;2023-11-19T05:15:45;3.35;;;2.17;;
75584;SDS011;64162;53.508;10.476;2023-11-19T05:20:38;3.53;;;2.40;;
75584;SDS011;64162;53.508;10.476;2023-11-19T05:25:31;4.03;;;2.42;;
75584;SDS011;64162;53.508;10.476;2023-11-19T05:27:58;4.00;;;2.38;;
75584;SDS011;64162;53.508;10.476;2023-11-19T05:32:51;4.07;;;2.42;;
75584;SDS011;64162;53.508;10.476;2023-11-19T05:35:17;6.38;;;2.75;;
75584;SDS011;64162;53.508;10.476;2023-11-19T05:40:10;7.15;;;3.45;;
75584;SDS011;64162;53.508;10.476;2023-11-19T05:42:41;6.25;;;3.17;;
75584;SDS011;64162;53.508;10.476;2023-11-19T05:45:08;11.40;;;4.20;;
75584;SDS011;64162;53.508;10.476;2023-11-19T05:47:38;7.47;;;3.95;;
75584;SDS011;64162;53.508;10.476;2023-11-19T05:50:04;7.20;;;3.85;;
75584;SDS011;64162;53.508;10.476;2023-11-19T05:52:32;8.07;;;4.35;;
75584;SDS011;64162;53.508;10.476;2023-11-19T05:55:00;10.18;;;3.78;;
75584;SDS011;64162;53.508;10.476;2023-11-19T05:57:30;9.30;;;4.00;;
75584;SDS011;64162;53.508;10.476;2023-11-19T05:59:57;7.35;;;4.13;;
75584;SDS011;64162;53.508;10.476;2023-11-19T06:02:25;11.45;;;4.50;;
75584;SDS011;64162;53.508;10.476;2023-11-19T06:04:53;7.72;;;4.30;;
75584;SDS011;64162;53.508;10.476;2023-11-19T06:09:46;7.53;;;4.10;;
75584;SDS011;64162;53.508;10.476;2023-11-19T06:14:40;10.43;;;4.95;;
75584;SDS011;64162;53.508;10.476;2023-11-19T06:17:07;13.68;;;4.70;;
75584;SDS011;64162;53.508;10.476;2023-11-19T06:19:34;11.60;;;4.97;;
75584;SDS011;64162;53.508;10.476;2023-11-19T06:22:01;10.88;;;5.05;;
75584;SDS011;64162;53.508;10.476;2023-11-19T06:26:54;9.63;;;5.20;;
75584;SDS011;64162;53.508;10.476;2023-11-19T06:31:47;16.60;;;5.18;;
75584;SDS011;64162;53.508;10.476;2023-11-19T06:34:16;11.77;;;5.18;;
75584;SDS011;64162;53.508;10.476;2023-11-19T06:39:12;12.65;;;5.28;;
75584;SDS011;64162;53.508;10.476;2023-11-19T06:44:05;16.67;;;5.88;;
75584;SDS011;64162;53.508;10.476;2023-11-19T06:46:32;15.18;;;6.30;;
75584;SDS011;64162;53.508;10.476;2023-11-19T06:51:26;13.27;;;5.80;;
75584;SDS011;64162;53.508;10.476;2023-11-19T06:56:20;18.23;;;6.53;;
75584;SDS011;64162;53.508;10.476;2023-11-19T06:58:50;18.10;;;6.78;;
75584;SDS011;64162;53.508;10.476;2023-11-19T07:01:17;18.35;;;6.68;;
75584;SDS011;64162;53.508;10.476;2023-11-19T07:03:47;21.48;;;7.25;;
75584;SDS011;64162;53.508;10.476;2023-11-19T07:06:14;25.35;;;7.97;;
75584;SDS011;64162;53.508;10.476;2023-11-19T07:08:41;25.40;;;7.82;;
75584;SDS011;64162;53.508;10.476;2023-11-19T07:11:11;21.08;;;7.57;;
75584;SDS011;64162;53.508;10.476;2023-11-19T07:13:40;26.33;;;7.32;;
75584;SDS011;64162;53.508;10.476;2023-11-19T07:16:07;25.45;;;7.85;;
75584;SDS011;64162;53.508;10.476;2023-11-19T07:18:36;19.60;;;7.15;;
75584;SDS011;64162;53.508;10.476;2023-11-19T07:21:03;18.08;;;6.68;;
75584;SDS011;64162;53.508;10.476;2023-11-19T07:23:31;17.20;;;6.40;;
75584;SDS011;64162;53.508;10.476;2023-11-19T07:25:59;17.55;;;6.47;;
75584;SDS011;64162;53.508;10.476;2023-11-19T07:30:54;15.90;;;5.28;;
75584;SDS011;64162;53.508;10.476;2023-11-19T07:33:22;14.43;;;5.75;;
75584;SDS011;64162;53.508;10.476;2023-11-19T07:35:49;19.52;;;5.97;;
75584;SDS011;64162;53.508;10.476;2023-11-19T07:38:15;15.13;;;5.32;;
75584;SDS011;64162;53.508;10.476;2023-11-19T07:43:21;18.60;;;5.15;;
75584;SDS011;64162;53.508;10.476;2023-11-19T07:48:14;14.32;;;4.15;;
75584;SDS011;64162;53.508;10.476;2023-11-19T07:50:41;14.20;;;4.78;;
75584;SDS011;64162;53.508;10.476;2023-11-19T07:53:08;12.73;;;3.90;;
75584;SDS011;64162;53.508;10.476;2023-11-19T07:55:35;14.93;;;3.80;;
75584;SDS011;64162;53.508;10.476;2023-11-19T07:58:01;10.75;;;4.20;;
75584;SDS011;64162;53.508;10.476;2023-11-19T08:00:28;12.45;;;4.00;;
75584;SDS011;64162;53.508;10.476;2023-11-19T08:02:55;16.83;;;4.30;;
75584;SDS011;64162;53.508;10.476;2023-11-19T08:05:21;17.98;;;4.47;;
75584;SDS011;64162;53.508;10.476;2023-11-19T08:07:50;13.95;;;5.18;;
75584;SDS011;64162;53.508;10.476;2023-11-19T08:10:17;10.32;;;3.67;;
75584;SDS011;64162;53.508;10.476;2023-11-19T08:12:44;14.65;;;3.95;;
75584;SDS011;64162;53.508;10.476;2023-11-19T08:15:10;16.75;;;4.70;;
75584;SDS011;64162;53.508;10.476;2023-11-19T08:17:37;17.17;;;3.88;;
75584;SDS011;64162;53.508;10.476;2023-11-19T08:20:04;21.10;;;5.45;;
75584;SDS011;64162;53.508;10.476;2023-11-19T08:22:31;21.75;;;5.00;;
75584;SDS011;64162;53.508;10.476;2023-11-19T08:24:58;13.63;;;4.97;;
75584;SDS011;64162;53.508;10.476;2023-11-19T08:27:25;18.10;;;4.88;;
75584;SDS011;64162;53.508;10.476;2023-11-19T08:29:53;22.48;;;5.40;;
75584;SDS011;64162;53.508;10.476;2023-11-19T08:32:23;23.77;;;5.68;;
75584;SDS011;64162;53.508;10.476;2023-11-19T08:34:50;26.58;;;4.80;;
75584;SDS011;64162;53.508;10.476;2023-11-19T08:37:17;21.05;;;4.60;;
75584;SDS011;64162;53.508;10.476;2023-11-19T08:39:50;16.38;;;4.57;;
75584;SDS011;64162;53.508;10.476;2023-11-19T08:42:19;21.45;;;3.85;;
75584;SDS011;64162;53.508;10.476;2023-11-19T08:44:50;15.73;;;4.13;;
75584;SDS011;64162;53.508;10.476;2023-11-19T08:47:20;15.30;;;4.20;;
75584;SDS011;64162;53.508;10.476;2023-11-19T08:49:52;25.23;;;3.35;;
75584;SDS011;64162;53.508;10.476;2023-11-19T08:52:22;21.08;;;4.30;;
75584;SDS011;64162;53.508;10.476;2023-11-19T08:54:49;24.70;;;4.40;;
75584;SDS011;64162;53.508;10.476;2023-11-19T08:57:15;13.02;;;4.47;;
75584;SDS011;64162;53.508;10.476;2023-11-19T08:59:42;20.33;;;4.03;;
75584;SDS011;64162;53.508;10.476;2023-11-19T09:02:09;23.98;;;3.67;;
75584;SDS011;64162;53.508;10.476;2023-11-19T09:04:35;17.30;;;4.07;;
75584;SDS011;64162;53.508;10.476;2023-11-19T09:07:02;26.77;;;5.40;;
75584;SDS011;64162;53.508;10.476;2023-11-19T09:09:29;11.80;;;3.08;;
75584;SDS011;64162;53.508;10.476;2023-11-19T09:11:56;18.00;;;3.60;;
75584;SDS011;64162;53.508;10.476;2023-11-19T09:14:23;18.60;;;3.22;;
75584;SDS011;64162;53.508;10.476;2023-11-19T09:16:52;22.27;;;3.63;;
75584;SDS011;64162;53.508;10.476;2023-11-19T09:19:18;21.00;;;3.95;;
75584;SDS011;64162;53.508;10.476;2023-11-19T09:21:45;19.92;;;3.65;;
75584;SDS011;64162;53.508;10.476;2023-11-19T09:24:11;19.67;;;3.50;;
75584;SDS011;64162;53.508;10.476;2023-11-19T09:26:40;14.63;;;3.75;;
75584;SDS011;64162;53.508;10.476;2023-11-19T09:29:08;14.43;;;3.17;;
75584;SDS011;64162;53.508;10.476;2023-11-19T09:31:34;14.30;;;2.92;;
75584;SDS011;64162;53.508;10.476;2023-11-19T09:34:01;9.65;;;2.58;;
75584;SDS011;64162;53.508;10.476;2023-11-19T09:36:28;20.23;;;3.10;;
75584;SDS011;64162;53.508;10.476;2023-11-19T09:38:54;20.92;;;4.07;;
75584;SDS011;64162;53.508;10.476;2023-11-19T09:41:21;11.77;;;2.45;;
75584;SDS011;64162;53.508;10.476;2023-11-19T09:43:48;13.23;;;2.70;;
75584;SDS011;64162;53.508;10.476;2023-11-19T09:46:15;20.13;;;3.63;;
75584;SDS011;64162;53.508;10.476;2023-11-19T09:48:42;19.83;;;4.03;;
75584;SDS011;64162;53.508;10.476;2023-11-19T09:51:10;14.32;;;3.05;;
75584;SDS011;64162;53.508;10.476;2023-11-19T09:53:38;14.57;;;3.75;;
75584;SDS011;64162;53.508;10.476;2023-11-19T09:56:05;19.55;;;3.05;;
75584;SDS011;64162;53.508;10.476;2023-11-19T09:58:32;26.40;;;4.35;;
75584;SDS011;64162;53.508;10.476;2023-11-19T10:00:59;12.75;;;2.78;;
75584;SDS011;64162;53.508;10.476;2023-11-19T10:03:44;15.40;;;3.25;;
75584;SDS011;64162;53.508;10.476;2023-11-19T10:06:14;20.55;;;4.53;;
75584;SDS011;64162;53.508;10.476;2023-11-19T10:08:41;12.90;;;2.58;;
75584;SDS011;64162;53.508;10.476;2023-11-19T10:11:08;16.42;;;3.42;;
75584;SDS011;64162;53.508;10.476;2023-11-19T10:13:38;16.83;;;2.80;;
75584;SDS011;64162;53.508;10.476;2023-11-19T10:16:13;20.17;;;4.28;;
75584;SDS011;64162;53.508;10.476;2023-11-19T10:18:47;17.80;;;4.10;;
75584;SDS011;64162;53.508;10.476;2023-11-19T10:21:19;18.88;;;3.65;;
75584;SDS011;64162;53.508;10.476;2023-11-19T10:26:20;26.13;;;4.18;;
75584;SDS011;64162;53.508;10.476;2023-11-19T10:28:47;11.27;;;3.53;;
75584;SDS011;64162;53.508;10.476;2023-11-19T10:31:15;19.58;;;3.42;;
75584;SDS011;64162;53.508;10.476;2023-11-19T10:33:44;17.48;;;3.08;;
75584;SDS011;64162;53.508;10.476;2023-11-19T10:36:15;13.15;;;2.75;;
75584;SDS011;64162;53.508;10.476;2023-11-19T10:38:43;17.40;;;2.92;;
75584;SDS011;64162;53.508;10.476;2023-11-19T10:41:30;18.48;;;3.38;;
75584;SDS011;64162;53.508;10.476;2023-11-19T10:44:02;17.02;;;3.28;;
75584;SDS011;64162;53.508;10.476;2023-11-19T10:49:07;16.65;;;3.70;;
75584;SDS011;64162;53.508;10.476;2023-11-19T10:51:42;19.20;;;3.47;;
75584;SDS011;64162;53.508;10.476;2023-11-19T10:54:12;12.20;;;2.78;;
75584;SDS011;64162;53.508;10.476;2023-11-19T10:56:44;14.38;;;2.92;;
75584;SDS011;64162;53.508;10.476;2023-11-19T10:59:11;25.65;;;3.80;;
75584;SDS011;64162;53.508;10.476;2023-11-19T11:01:43;25.13;;;4.03;;
75584;SDS011;64162;53.508;10.476;2023-11-19T11:04:14;13.88;;;2.88;;
75584;SDS011;64162;53.508;10.476;2023-11-19T11:06:43;16.02;;;3.72;;
75584;SDS011;64162;53.508;10.476;2023-11-19T11:09:10;16.13;;;3.35;;
75584;SDS011;64162;53.508;10.476;2023-11-19T11:11:41;18.98;;;3.42;;
75584;SDS011;64162;53.508;10.476;2023-11-19T11:14:13;17.35;;;3.30;;
75584;SDS011;64162;53.508;10.476;2023-11-19T11:16:43;23.98;;;3.63;;
75584;SDS011;64162;53.508;10.476;2023-11-19T11:19:10;17.05;;;3.45;;
75584;SDS011;64162;53.508;10.476;2023-11-19T11:21:39;20.45;;;3.25;;
75584;SDS011;64162;53.508;10.476;2023-11-19T11:27:57;21.77;;;2.85;;
75584;SDS011;64162;53.508;10.476;2023-11-19T11:33:26;19.85;;;3.55;;
75584;SDS011;64162;53.508;10.476;2023-11-19T11:36:29;13.10;;;2.92;;
75584;SDS011;64162;53.508;10.476;2023-11-19T11:39:01;14.95;;;3.10;;
75584;SDS011;64162;53.508;10.476;2023-11-19T11:41:33;16.73;;;3.67;;
75584;SDS011;64162;53.508;10.476;2023-11-19T11:43:59;14.02;;;3.67;;
75584;SDS011;64162;53.508;10.476;2023-11-19T11:49:03;14.75;;;3.08;;
75584;SDS011;64162;53.508;10.476;2023-11-19T11:54:10;20.98;;;3.63;;
75584;SDS011;64162;53.508;10.476;2023-11-19T11:56:37;15.27;;;2.75;;
75584;SDS011;64162;53.508;10.476;2023-11-19T11:59:07;22.08;;;3.70;;
75584;SDS011;64162;53.508;10.476;2023-11-19T12:01:59;11.45;;;2.80;;
75584;SDS011;64162;53.508;10.476;2023-11-19T12:04:29;21.27;;;3.80;;
75584;SDS011;64162;53.508;10.476;2023-11-19T12:07:03;18.90;;;3.47;;
75584;SDS011;64162;53.508;10.476;2023-11-19T12:09:39;17.75;;;2.92;;
75584;SDS011;64162;53.508;10.476;2023-11-19T12:12:23;17.75;;;3.60;;
75584;SDS011;64162;53.508;10.476;2023-11-19T12:20:09;15.75;;;3.33;;
75584;SDS011;64162;53.508;10.476;2023-11-19T12:22:37;18.30;;;3.50;;
75584;SDS011;64162;53.508;10.476;2023-11-19T12:25:05;20.75;;;3.55;;
75584;SDS011;64162;53.508;10.476;2023-11-19T12:27:33;22.63;;;3.83;;
75584;SDS011;64162;53.508;10.476;2023-11-19T12:30:03;10.50;;;2.17;;
75584;SDS011;64162;53.508;10.476;2023-11-19T12:32:42;22.23;;;2.80;;
75584;SDS011;64162;53.508;10.476;2023-11-19T12:35:11;23.95;;;3.28;;
75584;SDS011;64162;53.508;10.476;2023-11-19T12:37:39;23.08;;;4.28;;
75584;SDS011;64162;53.508;10.476;2023-11-19T12:40:23;20.05;;;3.67;;
75584;SDS011;64162;53.508;10.476;2023-11-19T12:42:51;17.98;;;3.80;;
75584;SDS011;64162;53.508;10.476;2023-11-19T12:45:23;15.32;;;2.80;;
75584;SDS011;64162;53.508;10.476;2023-11-19T12:47:50;16.15;;;2.67;;
75584;SDS011;64162;53.508;10.476;2023-11-19T12:50:52;16.30;;;3.97;;
75584;SDS011;64162;53.508;10.476;2023-11-19T12:53:24;16.95;;;2.80;;
75584;SDS011;64162;53.508;10.476;2023-11-19T12:55:51;16.02;;;3.17;;
75584;SDS011;64162;53.508;10.476;2023-11-19T12:58:32;18.45;;;3.42;;
75584;SDS011;64162;53.508;10.476;2023-11-19T13:01:00;22.63;;;3.67;;
75584;SDS011;64162;53.508;10.476;2023-11-19T13:03:31;14.68;;;2.88;;
75584;SDS011;64162;53.508;10.476;2023-11-19T13:06:06;14.30;;;3.28;;
75584;SDS011;64162;53.508;10.476;2023-11-19T13:08:41;19.10;;;2.88;;
75584;SDS011;64162;53.508;10.476;2023-11-19T13:11:11;18.02;;;3.67;;
75584;SDS011;64162;53.508;10.476;2023-11-19T13:16:26;16.83;;;3.47;;
75584;SDS011;64162;53.508;10.476;2023-11-19T13:18:54;15.70;;;3.58;;
75584;SDS011;64162;53.508;10.476;2023-11-19T13:21:21;17.80;;;4.47;;
75584;SDS011;64162;53.508;10.476;2023-11-19T13:23:48;18.65;;;3.72;;
75584;SDS011;64162;53.508;10.476;2023-11-19T13:26:14;17.05;;;3.22;;
75584;SDS011;64162;53.508;10.476;2023-11-19T13:28:41;17.67;;;3.22;;
75584;SDS011;64162;53.508;10.476;2023-11-19T13:31:08;14.15;;;3.17;;
75584;SDS011;64162;53.508;10.476;2023-11-19T13:33:34;16.90;;;4.00;;
75584;SDS011;64162;53.508;10.476;2023-11-19T13:36:02;19.00;;;3.53;;
75584;SDS011;64162;53.508;10.476;2023-11-19T13:38:33;15.98;;;3.10;;
75584;SDS011;64162;53.508;10.476;2023-11-19T13:41:02;20.85;;;3.40;;
75584;SDS011;64162;53.508;10.476;2023-11-19T13:43:30;15.85;;;4.13;;
75584;SDS011;64162;53.508;10.476;2023-11-19T13:45:57;19.02;;;3.67;;
75584;SDS011;64162;53.508;10.476;2023-11-19T13:48:24;20.10;;;2.92;;
75584;SDS011;64162;53.508;10.476;2023-11-19T13:50:52;13.45;;;3.70;;
75584;SDS011;64162;53.508;10.476;2023-11-19T13:53:19;14.30;;;3.17;;
75584;SDS011;64162;53.508;10.476;2023-11-19T13:55:46;12.93;;;3.38;;
75584;SDS011;64162;53.508;10.476;2023-11-19T13:58:13;14.98;;;2.83;;
75584;SDS011;64162;53.508;10.476;2023-11-19T14:00:40;20.33;;;3.95;;
75584;SDS011;64162;53.508;10.476;2023-11-19T14:03:08;14.23;;;2.92;;
75584;SDS011;64162;53.508;10.476;2023-11-19T14:05:37;14.85;;;3.08;;
75584;SDS011;64162;53.508;10.476;2023-11-19T14:08:04;18.35;;;3.47;;
75584;SDS011;64162;53.508;10.476;2023-11-19T14:10:41;12.02;;;2.33;;
75584;SDS011;64162;53.508;10.476;2023-11-19T14:13:07;14.95;;;3.00;;
75584;SDS011;64162;53.508;10.476;2023-11-19T14:15:34;16.70;;;3.58;;
75584;SDS011;64162;53.508;10.476;2023-11-19T14:18:01;11.77;;;3.13;;
75584;SDS011;64162;53.508;10.476;2023-11-19T14:20:29;13.10;;;3.75;;
75584;SDS011;64162;53.508;10.476;2023-11-19T14:22:56;15.82;;;3.10;;
75584;SDS011;64162;53.508;10.476;2023-11-19T14:25:22;17.70;;;3.40;;
75584;SDS011;64162;53.508;10.476;2023-11-19T14:27:49;19.75;;;3.65;;
75584;SDS011;64162;53.508;10.476;2023-11-19T14:30:16;16.38;;;3.58;;
75584;SDS011;64162;53.508;10.476;2023-11-19T14:32:43;24.48;;;3.42;;
75584;SDS011;64162;53.508;10.476;2023-11-19T14:35:14;15.40;;;2.95;;
75584;SDS011;64162;53.508;10.476;2023-11-19T14:37:41;14.57;;;3.38;;
75584;SDS011;64162;53.508;10.476;2023-11-19T14:40:07;18.35;;;3.08;;
75584;SDS011;64162;53.508;10.476;2023-11-19T14:42:37;32.03;;;3.95;;
75584;SDS011;64162;53.508;10.476;2023-11-19T14:45:05;14.70;;;3.25;;
75584;SDS011;64162;53.508;10.476;2023-11-19T14:47:33;13.68;;;3.83;;
75584;SDS011;64162;53.508;10.476;2023-11-19T14:50:00;20.80;;;3.33;;
75584;SDS011;64162;53.508;10.476;2023-11-19T14:52:26;17.05;;;3.03;;
75584;SDS011;64162;53.508;10.476;2023-11-19T14:54:53;17.80;;;3.50;;
75584;SDS011;64162;53.508;10.476;2023-11-19T14:57:20;20.02;;;4.07;;
75584;SDS011;64162;53.508;10.476;2023-11-19T14:59:47;18.63;;;3.33;;
75584;SDS011;64162;53.508;10.476;2023-11-19T15:02:14;10.68;;;3.00;;
75584;SDS011;64162;53.508;10.476;2023-11-19T15:04:40;14.35;;;3.72;;
75584;SDS011;64162;53.508;10.476;2023-11-19T15:07:10;17.92;;;3.95;;
75584;SDS011;64162;53.508;10.476;2023-11-19T15:09:37;16.33;;;4.03;;
75584;SDS011;64162;53.508;10.476;2023-11-19T15:12:04;23.92;;;4.07;;
75584;SDS011;64162;53.508;10.476;2023-11-19T15:14:31;17.10;;;3.83;;
75584;SDS011;64162;53.508;10.476;2023-11-19T15:16:58;18.67;;;4.40;;
75584;SDS011;64162;53.508;10.476;2023-11-19T15:19:24;23.15;;;4.97;;
75584;SDS011;64162;53.508;10.476;2023-11-19T15:21:51;16.90;;;4.38;;
75584;SDS011;64162;53.508;10.476;2023-11-19T15:24:18;19.98;;;4.00;;
75584;SDS011;64162;53.508;10.476;2023-11-19T15:26:45;19.95;;;4.15;;
75584;SDS011;64162;53.508;10.476;2023-11-19T15:29:12;20.48;;;4.32;;
75584;SDS011;64162;53.508;10.476;2023-11-19T15:31:40;15.25;;;4.07;;
75584;SDS011;64162;53.508;10.476;2023-11-19T15:34:06;19.73;;;3.75;;
75584;SDS011;64162;53.508;10.476;2023-11-19T15:36:35;16.00;;;3.70;;
75584;SDS011;64162;53.508;10.476;2023-11-19T15:39:02;15.02;;;3.65;;
75584;SDS011;64162;53.508;10.476;2023-11-19T15:41:29;14.73;;;3.25;;
75584;SDS011;64162;53.508;10.476;2023-11-19T15:43:57;17.42;;;3.47;;
75584;SDS011;64162;53.508;10.476;2023-11-19T15:46:23;17.15;;;3.50;;
75584;SDS011;64162;53.508;10.476;2023-11-19T15:48:51;17.67;;;3.30;;
75584;SDS011;64162;53.508;10.476;2023-11-19T15:51:17;14.85;;;3.25;;
75584;SDS011;64162;53.508;10.476;2023-11-19T15:53:44;18.48;;;4.00;;
75584;SDS011;64162;53.508;10.476;2023-11-19T15:56:13;9.40;;;3.17;;
75584;SDS011;64162;53.508;10.476;2023-11-19T15:58:41;13.45;;;2.95;;
75584;SDS011;64162;53.508;10.476;2023-11-19T16:01:11;8.68;;;3.10;;
75584;SDS011;64162;53.508;10.476;2023-11-19T16:03:40;12.18;;;3.33;;
75584;SDS011;64162;53.508;10.476;2023-11-19T16:06:13;10.45;;;3.75;;
75584;SDS011;64162;53.508;10.476;2023-11-19T16:08:41;11.13;;;3.10;;
75584;SDS011;64162;53.508;10.476;2023-11-19T16:11:09;15.23;;;2.72;;
75584;SDS011;64162;53.508;10.476;2023-11-19T16:13:37;12.63;;;2.80;;
75584;SDS011;64162;53.508;10.476;2023-11-19T16:16:04;6.80;;;2.28;;